sensor_id;sensor_type;location;lat;lon;timestamp;pressure;altitude;pressure_sealevel;temperature;humidity
10618;BME280;5356;43.526;26.534;2022-12-18T00:03:46;99826.81;;;9.83;100.00
10618;BME280;5356;43.526;26.534;2022-12-18T00:06:12;99821.88;;;9.80;100.00
10618;BME280;5356;43.526;26.534;2022-12-18T00:08:39;99835.41;;;9.85;100.00
10618;BME280;5356;43.526;26.534;2022-12-18T00:11:07;99850.75;;;9.83;100.00
10618;BME280;5356;43.526;26.534;2022-12-18T00:13:33;99841.75;;;9.84;100.00
10618;BME280;5356;43.526;26.534;2022-12-18T00:16:17;99841.97;;;9.89;100.00
10618;BME280;5356;43.526;26.534;2022-12-18T00:18:46;99857.72;;;9.90;100.00
10618;BME280;5356;43.526;26.534;2022-12-18T00:21:12;99854.66;;;9.87;100.00
10618;BME280;5356;43.526;26.534;2022-12-18T00:23:40;99866.91;;;9.81;100.00
10618;BME280;5356;43.526;26.534;2022-12-18T00:26:10;99865.28;;;9.80;100.00
10618;BME280;5356;43.526;26.534;2022-12-18T00:28:36;99875.09;;;9.80;100.00
10618;BME280;5356;43.526;26.534;2022-12-18T00:31:06;99872.63;;;9.78;100.00
10618;BME280;5356;43.526;26.534;2022-12-18T00:33:33;99883.09;;;9.80;100.00
10618;BME280;5356;43.526;26.534;2022-12-18T00:36:09;99887.75;;;9.71;100.00
10618;BME280;5356;43.526;26.534;2022-12-18T00:38:35;99895.09;;;9.69;100.00
10618;BME280;5356;43.526;26.534;2022-12-18T00:41:01;99891.00;;;9.66;100.00
10618;BME280;5356;43.526;26.534;2022-12-18T00:43:27;99893.50;;;9.75;100.00
10618;BME280;5356;43.526;26.534;2022-12-18T00:45:52;99894.06;;;9.70;100.00
10618;BME280;5356;43.526;26.534;2022-12-18T00:48:18;99903.50;;;9.73;100.00
10618;BME280;5356;43.526;26.534;2022-12-18T00:50:44;99909.03;;;9.71;100.00
10618;BME280;5356;43.526;26.534;2022-12-18T00:53:09;99911.88;;;9.70;100.00
10618;BME280;5356;43.526;26.534;2022-12-18T00:55:35;99914.69;;;9.61;100.00
10618;BME280;5356;43.526;26.534;2022-12-18T00:58:02;99912.81;;;9.55;100.00
10618;BME280;5356;43.526;26.534;2022-12-18T01:00:27;99914.44;;;9.56;100.00
10618;BME280;5356;43.526;26.534;2022-12-18T01:02:52;99913.00;;;9.54;100.00
10618;BME280;5356;43.526;26.534;2022-12-18T01:05:18;99917.50;;;9.53;100.00
10618;BME280;5356;43.526;26.534;2022-12-18T01:07:43;99915.88;;;9.52;100.00
10618;BME280;5356;43.526;26.534;2022-12-18T01:10:11;99909.78;;;9.58;100.00
10618;BME280;5356;43.526;26.534;2022-12-18T01:12:37;99920.16;;;9.53;100.00
10618;BME280;5356;43.526;26.534;2022-12-18T01:15:03;99918.69;;;9.44;100.00
10618;BME280;5356;43.526;26.534;2022-12-18T01:17:28;99924.00;;;9.44;100.00
10618;BME280;5356;43.526;26.534;2022-12-18T01:19:54;99919.63;;;9.36;100.00
10618;BME280;5356;43.526;26.534;2022-12-18T01:22:19;99924.53;;;9.33;100.00
10618;BME280;5356;43.526;26.534;2022-12-18T01:24:45;99930.63;;;9.27;100.00
10618;BME280;5356;43.526;26.534;2022-12-18T01:27:10;99922.97;;;9.17;100.00
10618;BME280;5356;43.526;26.534;2022-12-18T01:29:36;99921.72;;;9.13;100.00
10618;BME280;5356;43.526;26.534;2022-12-18T01:32:01;99931.66;;;9.04;100.00
10618;BME280;5356;43.526;26.534;2022-12-18T01:34:27;99932.03;;;9.01;100.00
10618;BME280;5356;43.526;26.534;2022-12-18T01:36:52;99947.47;;;8.91;100.00
10618;BME280;5356;43.526;26.534;2022-12-18T01:39:18;99953.16;;;8.88;100.00
10618;BME280;5356;43.526;26.534;2022-12-18T01:41:44;99947.16;;;8.79;100.00
10618;BME280;5356;43.526;26.534;2022-12-18T01:47:39;99954.44;;;8.70;100.00
10618;BME280;5356;43.526;26.534;2022-12-18T01:50:50;99953.16;;;8.66;100.00
10618;BME280;5356;43.526;26.534;2022-12-18T01:55:36;99950.41;;;8.60;100.00
10618;BME280;5356;43.526;26.534;2022-12-18T01:58:03;99937.16;;;8.60;100.00
10618;BME280;5356;43.526;26.534;2022-12-18T02:00:29;99945.44;;;8.50;100.00
10618;BME280;5356;43.526;26.534;2022-12-18T02:02:55;99952.47;;;8.43;100.00
10618;BME280;5356;43.526;26.534;2022-12-18T02:10:54;99963.91;;;8.28;100.00
10618;BME280;5356;43.526;26.534;2022-12-18T02:16:25;99964.50;;;8.24;100.00
10618;BME280;5356;43.526;26.534;2022-12-18T02:18:57;99962.38;;;8.19;100.00
10618;BME280;5356;43.526;26.534;2022-12-18T02:22:09;99965.13;;;8.11;100.00
10618;BME280;5356;43.526;26.534;2022-12-18T02:24:45;99969.41;;;8.12;100.00
10618;BME280;5356;43.526;26.534;2022-12-18T02:27:17;99960.56;;;8.05;100.00
10618;BME280;5356;43.526;26.534;2022-12-18T02:29:51;99971.63;;;8.08;100.00
10618;BME280;5356;43.526;26.534;2022-12-18T02:32:25;99971.56;;;8.02;100.00
10618;BME280;5356;43.526;26.534;2022-12-18T02:34:54;99971.28;;;7.97;100.00
10618;BME280;5356;43.526;26.534;2022-12-18T02:37:22;99976.13;;;7.93;100.00
10618;BME280;5356;43.526;26.534;2022-12-18T02:39:49;99976.50;;;7.90;100.00
10618;BME280;5356;43.526;26.534;2022-12-18T02:42:17;99981.31;;;7.86;100.00
10618;BME280;5356;43.526;26.534;2022-12-18T02:44:49;99989.19;;;7.80;100.00
10618;BME280;5356;43.526;26.534;2022-12-18T02:47:17;99987.91;;;7.76;100.00
10618;BME280;5356;43.526;26.534;2022-12-18T02:50:45;100001.72;;;7.71;100.00
10618;BME280;5356;43.526;26.534;2022-12-18T03:00:44;100016.06;;;7.62;100.00
10618;BME280;5356;43.526;26.534;2022-12-18T03:03:19;100012.75;;;7.60;100.00
10618;BME280;5356;43.526;26.534;2022-12-18T03:05:51;100017.25;;;7.59;100.00
10618;BME280;5356;43.526;26.534;2022-12-18T03:08:27;100031.91;;;7.70;100.00
10618;BME280;5356;43.526;26.534;2022-12-18T03:10:58;100039.00;;;7.70;100.00
10618;BME280;5356;43.526;26.534;2022-12-18T03:16:07;100044.31;;;7.70;100.00
10618;BME280;5356;43.526;26.534;2022-12-18T03:18:51;100051.34;;;7.62;100.00
10618;BME280;5356;43.526;26.534;2022-12-18T03:21:24;100049.16;;;7.66;100.00
10618;BME280;5356;43.526;26.534;2022-12-18T03:23:54;100061.50;;;7.59;100.00
10618;BME280;5356;43.526;26.534;2022-12-18T03:26:24;100064.94;;;7.45;100.00
10618;BME280;5356;43.526;26.534;2022-12-18T03:29:00;100069.28;;;7.37;100.00
10618;BME280;5356;43.526;26.534;2022-12-18T03:31:28;100059.19;;;7.33;100.00
10618;BME280;5356;43.526;26.534;2022-12-18T03:33:59;100058.84;;;7.36;100.00
10618;BME280;5356;43.526;26.534;2022-12-18T03:36:27;100059.38;;;7.31;100.00
10618;BME280;5356;43.526;26.534;2022-12-18T03:38:55;100061.38;;;7.29;100.00
10618;BME280;5356;43.526;26.534;2022-12-18T03:41:33;100063.25;;;7.20;100.00
10618;BME280;5356;43.526;26.534;2022-12-18T03:44:40;100069.38;;;7.21;100.00
10618;BME280;5356;43.526;26.534;2022-12-18T03:47:24;100085.16;;;7.14;100.00
10618;BME280;5356;43.526;26.534;2022-12-18T03:50:18;100089.38;;;7.01;100.00
10618;BME280;5356;43.526;26.534;2022-12-18T03:52:57;100087.78;;;6.91;100.00
10618;BME280;5356;43.526;26.534;2022-12-18T03:55:26;100092.88;;;6.93;100.00
10618;BME280;5356;43.526;26.534;2022-12-18T03:57:53;100089.25;;;6.94;100.00
10618;BME280;5356;43.526;26.534;2022-12-18T04:00:19;100103.47;;;6.93;100.00
10618;BME280;5356;43.526;26.534;2022-12-18T04:02:51;100119.22;;;6.94;100.00
10618;BME280;5356;43.526;26.534;2022-12-18T04:05:19;100121.16;;;7.01;100.00
10618;BME280;5356;43.526;26.534;2022-12-18T04:07:47;100127.63;;;6.98;100.00
10618;BME280;5356;43.526;26.534;2022-12-18T04:10:13;100132.97;;;6.90;100.00
10618;BME280;5356;43.526;26.534;2022-12-18T04:12:40;100127.16;;;6.94;100.00
10618;BME280;5356;43.526;26.534;2022-12-18T04:15:06;100143.50;;;7.06;100.00
10618;BME280;5356;43.526;26.534;2022-12-18T04:17:32;100135.38;;;7.08;100.00
10618;BME280;5356;43.526;26.534;2022-12-18T04:19:57;100140.06;;;6.97;100.00
10618;BME280;5356;43.526;26.534;2022-12-18T04:22:23;100144.00;;;7.02;100.00
10618;BME280;5356;43.526;26.534;2022-12-18T04:24:48;100141.38;;;6.93;100.00
10618;BME280;5356;43.526;26.534;2022-12-18T04:27:13;100149.84;;;6.97;100.00
10618;BME280;5356;43.526;26.534;2022-12-18T04:29:39;100147.03;;;6.90;100.00
10618;BME280;5356;43.526;26.534;2022-12-18T04:32:05;100158.66;;;6.81;100.00
10618;BME280;5356;43.526;26.534;2022-12-18T04:34:30;100157.53;;;6.75;100.00
10618;BME280;5356;43.526;26.534;2022-12-18T04:36:56;100163.84;;;6.66;100.00
10618;BME280;5356;43.526;26.534;2022-12-18T04:39:21;100165.03;;;6.56;100.00
10618;BME280;5356;43.526;26.534;2022-12-18T04:41:47;100179.44;;;6.53;100.00
10618;BME280;5356;43.526;26.534;2022-12-18T04:44:13;100183.91;;;6.52;100.00
10618;BME280;5356;43.526;26.534;2022-12-18T04:46:38;100184.09;;;6.43;100.00
10618;BME280;5356;43.526;26.534;2022-12-18T04:49:04;100194.34;;;6.38;100.00
10618;BME280;5356;43.526;26.534;2022-12-18T04:51:29;100196.66;;;6.41;100.00
10618;BME280;5356;43.526;26.534;2022-12-18T04:53:54;100197.81;;;6.46;100.00
10618;BME280;5356;43.526;26.534;2022-12-18T04:56:20;100202.28;;;6.46;100.00
10618;BME280;5356;43.526;26.534;2022-12-18T04:58:46;100210.03;;;6.64;100.00
10618;BME280;5356;43.526;26.534;2022-12-18T05:01:13;100208.03;;;6.74;100.00
10618;BME280;5356;43.526;26.534;2022-12-18T05:03:40;100207.34;;;6.80;100.00
10618;BME280;5356;43.526;26.534;2022-12-18T05:06:07;100200.22;;;6.81;100.00
10618;BME280;5356;43.526;26.534;2022-12-18T05:08:33;100208.31;;;6.79;100.00
10618;BME280;5356;43.526;26.534;2022-12-18T05:11:00;100213.00;;;6.69;100.00
10618;BME280;5356;43.526;26.534;2022-12-18T05:13:26;100210.50;;;6.67;100.00
10618;BME280;5356;43.526;26.534;2022-12-18T05:15:53;100215.31;;;6.64;100.00
10618;BME280;5356;43.526;26.534;2022-12-18T05:18:19;100217.63;;;6.59;100.00
10618;BME280;5356;43.526;26.534;2022-12-18T05:20:44;100217.81;;;6.57;100.00
10618;BME280;5356;43.526;26.534;2022-12-18T05:23:10;100217.28;;;6.62;100.00
10618;BME280;5356;43.526;26.534;2022-12-18T05:25:35;100231.69;;;6.51;100.00
10618;BME280;5356;43.526;26.534;2022-12-18T05:28:00;100236.84;;;6.44;100.00
10618;BME280;5356;43.526;26.534;2022-12-18T05:30:26;100248.59;;;6.50;100.00
10618;BME280;5356;43.526;26.534;2022-12-18T05:32:52;100250.75;;;6.38;100.00
10618;BME280;5356;43.526;26.534;2022-12-18T05:35:18;100251.09;;;6.43;100.00
10618;BME280;5356;43.526;26.534;2022-12-18T05:37:43;100248.59;;;6.34;100.00
10618;BME280;5356;43.526;26.534;2022-12-18T05:40:09;100250.75;;;6.30;100.00
10618;BME280;5356;43.526;26.534;2022-12-18T05:42:35;100266.97;;;6.27;100.00
10618;BME280;5356;43.526;26.534;2022-12-18T05:45:00;100267.63;;;6.21;100.00
10618;BME280;5356;43.526;26.534;2022-12-18T05:47:28;100269.91;;;6.16;100.00
10618;BME280;5356;43.526;26.534;2022-12-18T05:49:54;100278.19;;;6.13;100.00
10618;BME280;5356;43.526;26.534;2022-12-18T05:52:19;100277.69;;;6.09;100.00
10618;BME280;5356;43.526;26.534;2022-12-18T05:54:45;100290.06;;;6.08;100.00
10618;BME280;5356;43.526;26.534;2022-12-18T05:57:10;100296.84;;;6.11;100.00
10618;BME280;5356;43.526;26.534;2022-12-18T05:59:36;100300.66;;;6.17;100.00
10618;BME280;5356;43.526;26.534;2022-12-18T06:02:01;100308.31;;;6.36;100.00
10618;BME280;5356;43.526;26.534;2022-12-18T06:04:29;100312.78;;;6.44;100.00
10618;BME280;5356;43.526;26.534;2022-12-18T06:06:55;100319.56;;;6.55;100.00
10618;BME280;5356;43.526;26.534;2022-12-18T06:09:20;100324.53;;;6.66;100.00
10618;BME280;5356;43.526;26.534;2022-12-18T06:11:46;100318.56;;;6.72;100.00
10618;BME280;5356;43.526;26.534;2022-12-18T06:14:11;100325.50;;;6.81;100.00
10618;BME280;5356;43.526;26.534;2022-12-18T06:16:37;100323.34;;;6.85;100.00
10618;BME280;5356;43.526;26.534;2022-12-18T06:19:05;100337.78;;;6.82;100.00
10618;BME280;5356;43.526;26.534;2022-12-18T06:21:31;100342.41;;;6.72;100.00
10618;BME280;5356;43.526;26.534;2022-12-18T06:23:57;100353.31;;;6.69;100.00
10618;BME280;5356;43.526;26.534;2022-12-18T06:26:23;100360.25;;;6.62;100.00
10618;BME280;5356;43.526;26.534;2022-12-18T06:28:49;100370.50;;;6.57;100.00
10618;BME280;5356;43.526;26.534;2022-12-18T06:31:15;100366.06;;;6.49;100.00
10618;BME280;5356;43.526;26.534;2022-12-18T06:33:40;100374.47;;;6.44;100.00
10618;BME280;5356;43.526;26.534;2022-12-18T06:36:11;100380.75;;;6.35;100.00
10618;BME280;5356;43.526;26.534;2022-12-18T06:38:39;100381.41;;;6.29;100.00
10618;BME280;5356;43.526;26.534;2022-12-18T06:41:18;100392.50;;;6.33;100.00
10618;BME280;5356;43.526;26.534;2022-12-18T06:43:43;100395.00;;;6.34;100.00
10618;BME280;5356;43.526;26.534;2022-12-18T06:46:09;100397.00;;;6.48;100.00
10618;BME280;5356;43.526;26.534;2022-12-18T06:48:35;100388.22;;;6.56;100.00
10618;BME280;5356;43.526;26.534;2022-12-18T06:51:00;100393.03;;;6.52;100.00
10618;BME280;5356;43.526;26.534;2022-12-18T06:53:26;100393.53;;;6.56;100.00
10618;BME280;5356;43.526;26.534;2022-12-18T06:55:58;100389.22;;;6.55;100.00
10618;BME280;5356;43.526;26.534;2022-12-18T06:58:24;100392.88;;;6.46;100.00
10618;BME280;5356;43.526;26.534;2022-12-18T07:00:50;100391.03;;;6.46;100.00
10618;BME280;5356;43.526;26.534;2022-12-18T07:03:15;100401.44;;;6.48;100.00
10618;BME280;5356;43.526;26.534;2022-12-18T07:05:40;100406.59;;;6.49;100.00
10618;BME280;5356;43.526;26.534;2022-12-18T07:08:06;100413.03;;;6.47;100.00
10618;BME280;5356;43.526;26.534;2022-12-18T07:10:32;100418.31;;;6.47;100.00
10618;BME280;5356;43.526;26.534;2022-12-18T07:12:57;100411.88;;;6.49;100.00
10618;BME280;5356;43.526;26.534;2022-12-18T07:15:23;100419.31;;;6.46;100.00
10618;BME280;5356;43.526;26.534;2022-12-18T07:17:48;100416.50;;;6.47;100.00
10618;BME280;5356;43.526;26.534;2022-12-18T07:20:14;100429.09;;;6.62;100.00
10618;BME280;5356;43.526;26.534;2022-12-18T07:22:39;100421.50;;;6.67;100.00
10618;BME280;5356;43.526;26.534;2022-12-18T07:25:05;100430.47;;;6.74;100.00
10618;BME280;5356;43.526;26.534;2022-12-18T07:27:31;100440.84;;;6.67;100.00
10618;BME280;5356;43.526;26.534;2022-12-18T07:29:56;100442.53;;;6.60;100.00
10618;BME280;5356;43.526;26.534;2022-12-18T07:32:22;100444.81;;;6.55;100.00
10618;BME280;5356;43.526;26.534;2022-12-18T07:34:47;100450.44;;;6.52;100.00
10618;BME280;5356;43.526;26.534;2022-12-18T07:37:13;100456.91;;;6.58;100.00
10618;BME280;5356;43.526;26.534;2022-12-18T07:39:38;100455.09;;;6.58;100.00
10618;BME280;5356;43.526;26.534;2022-12-18T07:42:04;100457.88;;;6.57;100.00
10618;BME280;5356;43.526;26.534;2022-12-18T07:44:48;100471.63;;;6.52;100.00
10618;BME280;5356;43.526;26.534;2022-12-18T07:47:13;100483.06;;;6.61;100.00
10618;BME280;5356;43.526;26.534;2022-12-18T07:49:38;100474.63;;;6.65;100.00
10618;BME280;5356;43.526;26.534;2022-12-18T07:52:04;100485.22;;;6.65;100.00
10618;BME280;5356;43.526;26.534;2022-12-18T07:54:29;100486.88;;;6.66;100.00
10618;BME280;5356;43.526;26.534;2022-12-18T07:56:55;100489.84;;;6.63;100.00
10618;BME280;5356;43.526;26.534;2022-12-18T07:59:20;100499.09;;;6.59;100.00
10618;BME280;5356;43.526;26.534;2022-12-18T08:01:46;100500.91;;;6.59;100.00
10618;BME280;5356;43.526;26.534;2022-12-18T08:04:11;100502.03;;;6.48;100.00
10618;BME280;5356;43.526;26.534;2022-12-18T08:06:37;100501.41;;;6.54;100.00
10618;BME280;5356;43.526;26.534;2022-12-18T08:09:02;100499.41;;;6.56;100.00
10618;BME280;5356;43.526;26.534;2022-12-18T08:11:28;100509.53;;;6.61;100.00
10618;BME280;5356;43.526;26.534;2022-12-18T08:13:54;100510.03;;;6.64;100.00
10618;BME280;5356;43.526;26.534;2022-12-18T08:16:21;100509.06;;;6.73;100.00
10618;BME280;5356;43.526;26.534;2022-12-18T08:18:47;100500.31;;;6.81;100.00
10618;BME280;5356;43.526;26.534;2022-12-18T08:21:16;100507.94;;;6.84;100.00
10618;BME280;5356;43.526;26.534;2022-12-18T08:23:42;100500.31;;;6.89;100.00
10618;BME280;5356;43.526;26.534;2022-12-18T08:26:08;100511.75;;;6.90;100.00
10618;BME280;5356;43.526;26.534;2022-12-18T08:28:34;100502.31;;;6.95;100.00
10618;BME280;5356;43.526;26.534;2022-12-18T08:31:00;100514.09;;;7.01;100.00
10618;BME280;5356;43.526;26.534;2022-12-18T08:33:26;100508.63;;;7.03;100.00
10618;BME280;5356;43.526;26.534;2022-12-18T08:35:52;100501.19;;;7.06;100.00
10618;BME280;5356;43.526;26.534;2022-12-18T08:38:17;100509.63;;;7.10;100.00
10618;BME280;5356;43.526;26.534;2022-12-18T08:40:43;100501.53;;;7.11;100.00
10618;BME280;5356;43.526;26.534;2022-12-18T08:43:10;100507.31;;;7.07;100.00
10618;BME280;5356;43.526;26.534;2022-12-18T08:45:54;100505.00;;;7.12;100.00
10618;BME280;5356;43.526;26.534;2022-12-18T08:48:20;100505.81;;;7.12;100.00
10618;BME280;5356;43.526;26.534;2022-12-18T08:51:11;100499.03;;;7.18;100.00
10618;BME280;5356;43.526;26.534;2022-12-18T08:53:37;100499.53;;;7.22;100.00
10618;BME280;5356;43.526;26.534;2022-12-18T08:56:03;100501.88;;;7.25;100.00
10618;BME280;5356;43.526;26.534;2022-12-18T08:58:29;100486.13;;;7.15;100.00
10618;BME280;5356;43.526;26.534;2022-12-18T09:01:02;100493.91;;;7.16;100.00
10618;BME280;5356;43.526;26.534;2022-12-18T09:03:28;100502.69;;;7.33;100.00
10618;BME280;5356;43.526;26.534;2022-12-18T09:05:53;100505.66;;;7.30;100.00
10618;BME280;5356;43.526;26.534;2022-12-18T09:08:18;100502.69;;;7.33;100.00
10618;BME280;5356;43.526;26.534;2022-12-18T09:10:45;100512.28;;;7.34;100.00
10618;BME280;5356;43.526;26.534;2022-12-18T09:13:12;100502.34;;;7.20;100.00
10618;BME280;5356;43.526;26.534;2022-12-18T09:15:43;100511.97;;;7.29;100.00
10618;BME280;5356;43.526;26.534;2022-12-18T09:18:11;100519.91;;;7.37;100.00
10618;BME280;5356;43.526;26.534;2022-12-18T09:20:37;100511.97;;;7.37;100.00
10618;BME280;5356;43.526;26.534;2022-12-18T09:23:03;100516.25;;;7.30;100.00
10618;BME280;5356;43.526;26.534;2022-12-18T09:25:29;100516.28;;;7.22;100.00
10618;BME280;5356;43.526;26.534;2022-12-18T09:28:12;100516.28;;;7.22;100.00
10618;BME280;5356;43.526;26.534;2022-12-18T09:30:39;100510.63;;;7.09;100.00
10618;BME280;5356;43.526;26.534;2022-12-18T09:33:04;100516.06;;;7.07;100.00
10618;BME280;5356;43.526;26.534;2022-12-18T09:35:30;100509.94;;;6.98;100.00
10618;BME280;5356;43.526;26.534;2022-12-18T09:37:55;100515.22;;;6.98;100.00
10618;BME280;5356;43.526;26.534;2022-12-18T09:40:24;100509.94;;;6.98;100.00
10618;BME280;5356;43.526;26.534;2022-12-18T09:43:02;100510.75;;;6.99;100.00
10618;BME280;5356;43.526;26.534;2022-12-18T09:45:38;100509.13;;;7.14;100.00
10618;BME280;5356;43.526;26.534;2022-12-18T09:48:05;100506.97;;;7.10;100.00
10618;BME280;5356;43.526;26.534;2022-12-18T09:50:37;100500.34;;;7.06;100.00
10618;BME280;5356;43.526;26.534;2022-12-18T09:53:07;100505.00;;;7.12;100.00
10618;BME280;5356;43.526;26.534;2022-12-18T09:55:39;100508.81;;;7.26;100.00
10618;BME280;5356;43.526;26.534;2022-12-18T09:58:06;100509.66;;;7.34;100.00
10618;BME280;5356;43.526;26.534;2022-12-18T10:00:35;100500.34;;;7.30;100.00
10618;BME280;5356;43.526;26.534;2022-12-18T10:03:10;100506.84;;;7.28;100.00
10618;BME280;5356;43.526;26.534;2022-12-18T10:05:49;100508.63;;;7.27;100.00
10618;BME280;5356;43.526;26.534;2022-12-18T10:08:28;100516.59;;;7.35;100.00
10618;BME280;5356;43.526;26.534;2022-12-18T10:11:40;100516.44;;;7.29;100.00
10618;BME280;5356;43.526;26.534;2022-12-18T10:22:18;100524.88;;;7.32;100.00
10618;BME280;5356;43.526;26.534;2022-12-18T10:27:26;100529.38;;;7.56;100.00
10618;BME280;5356;43.526;26.534;2022-12-18T10:29:52;100526.38;;;7.59;100.00
10618;BME280;5356;43.526;26.534;2022-12-18T10:32:25;100529.84;;;7.60;100.00
10618;BME280;5356;43.526;26.534;2022-12-18T10:34:55;100532.50;;;7.52;100.00
10618;BME280;5356;43.526;26.534;2022-12-18T10:37:26;100531.84;;;7.58;100.00
10618;BME280;5356;43.526;26.534;2022-12-18T10:40:12;100536.31;;;7.57;100.00
10618;BME280;5356;43.526;26.534;2022-12-18T10:42:38;100539.63;;;7.59;100.00
10618;BME280;5356;43.526;26.534;2022-12-18T10:45:09;100539.78;;;7.50;100.00
10618;BME280;5356;43.526;26.534;2022-12-18T10:47:36;100537.13;;;7.58;100.00
10618;BME280;5356;43.526;26.534;2022-12-18T10:52:55;100547.41;;;7.61;100.00
10618;BME280;5356;43.526;26.534;2022-12-18T10:55:21;100539.97;;;7.56;100.00
10618;BME280;5356;43.526;26.534;2022-12-18T10:57:47;100551.06;;;7.52;100.00
10618;BME280;5356;43.526;26.534;2022-12-18T11:00:28;100556.34;;;7.43;100.00
10618;BME280;5356;43.526;26.534;2022-12-18T11:02:54;100568.66;;;7.45;100.00
10618;BME280;5356;43.526;26.534;2022-12-18T11:05:30;100566.81;;;7.53;100.00
10618;BME280;5356;43.526;26.534;2022-12-18T11:07:56;100565.63;;;7.64;100.00
10618;BME280;5356;43.526;26.534;2022-12-18T11:10:46;100558.34;;;7.74;100.00
10618;BME280;5356;43.526;26.534;2022-12-18T11:13:17;100563.31;;;7.61;100.00
10618;BME280;5356;43.526;26.534;2022-12-18T11:15:43;100575.59;;;7.54;100.00
10618;BME280;5356;43.526;26.534;2022-12-18T11:20:59;100564.16;;;7.45;100.00
10618;BME280;5356;43.526;26.534;2022-12-18T11:23:27;100573.94;;;7.45;100.00
10618;BME280;5356;43.526;26.534;2022-12-18T11:25:57;100581.91;;;7.45;100.00
10618;BME280;5356;43.526;26.534;2022-12-18T11:31:15;100570.44;;;7.52;100.00
10618;BME280;5356;43.526;26.534;2022-12-18T11:34:04;100576.28;;;7.48;100.00
10618;BME280;5356;43.526;26.534;2022-12-18T11:36:36;100578.59;;;7.51;100.00
10618;BME280;5356;43.526;26.534;2022-12-18T11:39:12;100577.25;;;7.55;100.00
10618;BME280;5356;43.526;26.534;2022-12-18T11:41:48;100573.94;;;7.61;100.00
10618;BME280;5356;43.526;26.534;2022-12-18T11:44:48;100582.56;;;7.63;100.00
10618;BME280;5356;43.526;26.534;2022-12-18T11:50:17;100583.22;;;7.73;100.00
10618;BME280;5356;43.526;26.534;2022-12-18T11:52:43;100582.88;;;7.60;100.00
10618;BME280;5356;43.526;26.534;2022-12-18T11:55:15;100578.25;;;7.54;100.00
10618;BME280;5356;43.526;26.534;2022-12-18T12:00:28;100585.50;;;7.35;100.00
10618;BME280;5356;43.526;26.534;2022-12-18T12:06:16;100582.53;;;7.22;100.00
10618;BME280;5356;43.526;26.534;2022-12-18T12:18:25;100593.00;;;7.48;100.00
10618;BME280;5356;43.526;26.534;2022-12-18T12:23:58;100596.47;;;7.49;100.00
10618;BME280;5356;43.526;26.534;2022-12-18T12:26:35;100590.00;;;7.43;100.00
10618;BME280;5356;43.526;26.534;2022-12-18T12:35:09;100594.47;;;7.42;100.00
10618;BME280;5356;43.526;26.534;2022-12-18T12:38:11;100595.47;;;7.41;100.00
10618;BME280;5356;43.526;26.534;2022-12-18T12:40:46;100601.75;;;7.40;100.00
10618;BME280;5356;43.526;26.534;2022-12-18T12:45:54;100590.69;;;7.53;100.00
10618;BME280;5356;43.526;26.534;2022-12-18T12:53:39;100610.72;;;7.39;100.00
10618;BME280;5356;43.526;26.534;2022-12-18T12:56:09;100620.97;;;7.34;100.00
10618;BME280;5356;43.526;26.534;2022-12-18T13:01:57;100609.22;;;7.29;100.00
10618;BME280;5356;43.526;26.534;2022-12-18T13:04:40;100614.50;;;7.29;100.00
10618;BME280;5356;43.526;26.534;2022-12-18T13:10:12;100633.56;;;7.32;100.00
10618;BME280;5356;43.526;26.534;2022-12-18T13:13:01;100636.22;;;7.40;100.00
10618;BME280;5356;43.526;26.534;2022-12-18T13:15:43;100635.56;;;7.47;100.00
10618;BME280;5356;43.526;26.534;2022-12-18T13:18:11;100640.38;;;7.43;100.00
10618;BME280;5356;43.526;26.534;2022-12-18T13:26:37;100652.00;;;7.42;100.00
10618;BME280;5356;43.526;26.534;2022-12-18T13:34:17;100663.44;;;7.51;100.00
10618;BME280;5356;43.526;26.534;2022-12-18T13:36:43;100669.09;;;7.56;100.00
10618;BME280;5356;43.526;26.534;2022-12-18T13:41:49;100669.94;;;7.64;100.00
10618;BME280;5356;43.526;26.534;2022-12-18T13:44:40;100676.41;;;7.70;100.00
10618;BME280;5356;43.526;26.534;2022-12-18T13:47:27;100682.66;;;7.53;100.00
10618;BME280;5356;43.526;26.534;2022-12-18T13:49:56;100681.31;;;7.49;100.00
10618;BME280;5356;43.526;26.534;2022-12-18T13:52:25;100679.34;;;7.51;100.00
10618;BME280;5356;43.526;26.534;2022-12-18T13:54:56;100695.25;;;7.51;100.00
10618;BME280;5356;43.526;26.534;2022-12-18T13:57:31;100692.63;;;7.59;100.00
10618;BME280;5356;43.526;26.534;2022-12-18T13:59:58;100696.75;;;7.70;100.00
10618;BME280;5356;43.526;26.534;2022-12-18T14:02:26;100700.28;;;7.70;100.00
10618;BME280;5356;43.526;26.534;2022-12-18T14:04:53;100711.84;;;7.61;100.00
10618;BME280;5356;43.526;26.534;2022-12-18T14:07:22;100709.69;;;7.56;100.00
10618;BME280;5356;43.526;26.534;2022-12-18T14:09:53;100704.56;;;7.63;100.00
10618;BME280;5356;43.526;26.534;2022-12-18T14:12:26;100708.84;;;7.64;100.00
10618;BME280;5356;43.526;26.534;2022-12-18T14:15:30;100714.00;;;7.57;100.00
10618;BME280;5356;43.526;26.534;2022-12-18T14:20:26;100722.59;;;7.51;100.00
10618;BME280;5356;43.526;26.534;2022-12-18T14:22:52;100715.66;;;7.50;100.00
10618;BME280;5356;43.526;26.534;2022-12-18T14:25:18;100721.41;;;7.46;100.00
10618;BME280;5356;43.526;26.534;2022-12-18T14:27:51;100719.94;;;7.51;100.00
10618;BME280;5356;43.526;26.534;2022-12-18T14:33:09;100733.97;;;7.35;100.00
10618;BME280;5356;43.526;26.534;2022-12-18T14:35:40;100726.34;;;7.32;100.00
10618;BME280;5356;43.526;26.534;2022-12-18T14:38:10;100740.09;;;7.36;100.00
10618;BME280;5356;43.526;26.534;2022-12-18T14:40:36;100737.81;;;7.41;100.00
10618;BME280;5356;43.526;26.534;2022-12-18T14:43:02;100729.06;;;7.49;100.00
10618;BME280;5356;43.526;26.534;2022-12-18T14:45:37;100742.28;;;7.40;100.00
10618;BME280;5356;43.526;26.534;2022-12-18T14:48:22;100747.59;;;7.40;100.00
10618;BME280;5356;43.526;26.534;2022-12-18T14:51:04;100755.53;;;7.40;100.00
10618;BME280;5356;43.526;26.534;2022-12-18T14:53:45;100749.38;;;7.32;100.00